createdAt,value
2023-05-06T00:01:40.549Z,99.56
2023-05-06T00:04:07.512Z,99.65
2023-05-06T00:06:38.545Z,99.67
2023-05-06T00:09:05.315Z,99.73
2023-05-06T00:11:35.186Z,99.76
2023-05-06T00:14:09.996Z,99.77
2023-05-06T00:16:36.855Z,99.69
2023-05-06T00:19:04.256Z,99.78
2023-05-06T00:21:38.687Z,99.85
2023-05-06T00:24:08.627Z,99.92
2023-05-06T00:26:36.809Z,99.91
2023-05-06T00:29:04.096Z,99.98
2023-05-06T00:31:30.809Z,99.99
2023-05-06T00:33:57.672Z,99.99
2023-05-06T00:36:24.310Z,99.99
2023-05-06T00:38:51.045Z,99.99
2023-05-06T00:41:17.914Z,99.97
2023-05-06T00:43:44.623Z,99.92
2023-05-06T00:46:11.791Z,99.99
2023-05-06T00:48:38.835Z,99.97
2023-05-06T00:51:05.943Z,99.96
2023-05-06T00:53:33.375Z,99.85
2023-05-06T00:56:00.126Z,99.76
2023-05-06T00:58:28.188Z,99.65
2023-05-06T01:00:55.518Z,99.50
2023-05-06T01:03:23.012Z,99.46
2023-05-06T01:06:10.020Z,99.40
2023-05-06T01:08:52.362Z,99.49
2023-05-06T01:11:45.283Z,99.60
2023-05-06T01:14:30.957Z,99.62
2023-05-06T01:17:04.999Z,99.66
2023-05-06T01:19:43.276Z,99.62
2023-05-06T01:22:11.759Z,99.62
2023-05-06T01:24:45.289Z,99.67
2023-05-06T01:27:14.103Z,99.61
2023-05-06T01:29:43.299Z,99.54
2023-05-06T01:32:22.209Z,99.54
2023-05-06T01:35:24.430Z,99.47
2023-05-06T01:38:12.140Z,99.34
2023-05-06T01:40:47.905Z,99.29
2023-05-06T01:43:26.624Z,99.33
2023-05-06T01:45:54.962Z,99.32
2023-05-06T01:48:34.983Z,99.32
2023-05-06T01:51:01.927Z,99.38
2023-05-06T01:53:40.725Z,99.43
2023-05-06T01:56:07.804Z,99.40
2023-05-06T01:58:34.637Z,99.41
2023-05-06T02:01:01.518Z,99.36
2023-05-06T02:03:28.290Z,99.34
2023-05-06T02:05:55.041Z,99.32
2023-05-06T02:08:22.093Z,99.36
2023-05-06T02:10:48.773Z,99.44
2023-05-06T02:13:16.091Z,99.46
2023-05-06T02:15:42.962Z,99.46
2023-05-06T02:18:09.840Z,99.49
2023-05-06T02:20:36.528Z,99.41
2023-05-06T02:23:03.312Z,99.31
2023-05-06T02:25:30.085Z,99.25
2023-05-06T02:27:56.964Z,99.17
2023-05-06T02:30:24.042Z,99.08
2023-05-06T02:32:50.750Z,99.08
2023-05-06T02:35:17.610Z,99.04
2023-05-06T02:37:44.390Z,99.02
2023-05-06T02:40:11.816Z,99.00
2023-05-06T02:42:38.593Z,99.00
2023-05-06T02:45:05.906Z,99.05
2023-05-06T02:47:32.841Z,99.02
2023-05-06T02:49:59.930Z,98.97
2023-05-06T02:52:26.656Z,98.93
2023-05-06T02:54:53.343Z,98.95
2023-05-06T02:57:20.017Z,98.95
2023-05-06T02:59:46.688Z,98.94
2023-05-06T03:02:13.838Z,98.96
2023-05-06T03:04:40.624Z,98.99
2023-05-06T03:07:07.468Z,99.01
2023-05-06T03:09:34.139Z,98.89
2023-05-06T03:12:00.824Z,98.79
2023-05-06T03:14:27.501Z,98.66
2023-05-06T03:16:54.329Z,98.73
2023-05-06T03:19:21.202Z,98.80
2023-05-06T03:21:48.323Z,98.88
2023-05-06T03:24:15.316Z,98.91
2023-05-06T03:26:42.214Z,98.90
2023-05-06T03:29:09.229Z,98.97
2023-05-06T03:31:35.995Z,98.96
2023-05-06T03:34:02.973Z,98.82
2023-05-06T03:36:29.815Z,98.76
2023-05-06T03:38:56.471Z,98.67
2023-05-06T03:41:24.825Z,98.65
2023-05-06T03:43:52.562Z,98.60
2023-05-06T03:46:19.245Z,98.51
2023-05-06T03:48:46.175Z,98.50
2023-05-06T03:51:13.189Z,98.62
2023-05-06T03:53:39.918Z,98.46
2023-05-06T03:56:07.097Z,98.42
2023-05-06T03:58:33.853Z,98.56
2023-05-06T04:01:01.207Z,98.46
2023-05-06T04:03:28.093Z,98.27
2023-05-06T04:05:54.907Z,98.55
2023-05-06T04:08:21.783Z,98.45
2023-05-06T04:10:48.575Z,98.29
2023-05-06T04:13:15.518Z,98.20
2023-05-06T04:15:42.890Z,98.18
2023-05-06T04:18:09.587Z,98.02
2023-05-06T04:20:36.530Z,98.20
2023-05-06T04:23:03.384Z,98.25
2023-05-06T04:25:30.203Z,98.20
2023-05-06T04:27:56.942Z,98.37
2023-05-06T04:30:23.831Z,98.37
2023-05-06T04:32:50.547Z,98.40
2023-05-06T04:35:17.433Z,98.45
2023-05-06T04:37:44.631Z,98.31
2023-05-06T04:40:14.155Z,98.22
2023-05-06T04:42:40.978Z,98.05
2023-05-06T04:45:08.947Z,98.06
2023-05-06T04:47:36.304Z,98.09
2023-05-06T04:50:04.585Z,98.10
2023-05-06T04:52:31.569Z,97.95
2023-05-06T04:54:58.243Z,97.92
2023-05-06T04:57:25.199Z,97.91
2023-05-06T04:59:51.921Z,97.80
2023-05-06T05:02:18.668Z,97.87
2023-05-06T05:04:45.810Z,97.85
2023-05-06T05:07:12.505Z,97.89
2023-05-06T05:09:39.250Z,97.74
2023-05-06T05:12:06.285Z,97.58
2023-05-06T05:14:33.053Z,97.64
2023-05-06T05:16:59.856Z,97.59
2023-05-06T05:19:26.668Z,97.65
2023-05-06T05:21:53.449Z,97.61
2023-05-06T05:24:20.162Z,97.57
2023-05-06T05:26:46.916Z,97.43
2023-05-06T05:29:13.782Z,97.42
2023-05-06T05:31:40.730Z,97.51
2023-05-06T05:34:07.793Z,97.39
2023-05-06T05:36:34.949Z,97.45
2023-05-06T05:39:01.893Z,97.79
2023-05-06T05:41:28.620Z,97.81
2023-05-06T05:43:55.440Z,97.68
2023-05-06T05:46:22.188Z,97.28
2023-05-06T05:48:48.907Z,97.13
2023-05-06T05:51:15.668Z,97.14
2023-05-06T05:53:42.423Z,97.19
2023-05-06T05:56:09.216Z,97.10
2023-05-06T05:58:35.910Z,96.91
2023-05-06T06:01:02.704Z,96.66
2023-05-06T06:03:29.568Z,96.39
2023-05-06T06:05:56.649Z,95.99
2023-05-06T06:08:23.364Z,95.53
2023-05-06T06:10:50.170Z,95.76
2023-05-06T06:13:17.153Z,95.36
2023-05-06T06:15:44.102Z,95.36
2023-05-06T06:18:11.205Z,95.20
2023-05-06T06:20:38.071Z,94.78
2023-05-06T06:23:04.815Z,94.70
2023-05-06T06:25:33.383Z,94.57
2023-05-06T06:28:00.077Z,94.35
2023-05-06T06:33:41.446Z,94.33
2023-05-06T06:36:08.701Z,93.99
2023-05-06T06:38:36.683Z,93.20
2023-05-06T06:41:05.646Z,93.22
2023-05-06T06:43:32.845Z,93.13
2023-05-06T06:46:01.355Z,93.09
2023-05-06T06:48:28.063Z,92.83
2023-05-06T06:50:54.852Z,93.09
2023-05-06T06:53:21.647Z,92.66
2023-05-06T06:55:51.390Z,92.46
2023-05-06T06:58:19.160Z,91.90
2023-05-06T07:00:45.815Z,91.57
2023-05-06T07:03:16.257Z,90.73
2023-05-06T07:05:46.501Z,90.73
2023-05-06T07:08:13.167Z,90.40
2023-05-06T07:10:42.256Z,90.40
2023-05-06T07:13:09.852Z,89.98
2023-05-06T07:15:36.894Z,89.57
2023-05-06T07:18:03.962Z,89.81
2023-05-06T07:20:30.957Z,89.28
2023-05-06T07:22:58.375Z,88.81
2023-05-06T07:25:25.033Z,88.04
2023-05-06T07:27:51.871Z,88.60
2023-05-06T07:30:22.870Z,88.48
2023-05-06T07:32:50.335Z,87.83
2023-05-06T07:35:17.369Z,87.20
2023-05-06T07:37:48.668Z,86.67
2023-05-06T07:40:15.376Z,86.24
2023-05-06T07:42:43.090Z,86.31
2023-05-06T07:45:10.778Z,85.47
2023-05-06T07:47:40.682Z,85.37
2023-05-06T07:50:08.461Z,84.80
2023-05-06T07:52:35.262Z,85.01
2023-05-06T07:55:01.903Z,83.50
2023-05-06T07:57:28.622Z,80.57
2023-05-06T07:59:55.396Z,79.60
2023-05-06T08:02:22.657Z,79.07
2023-05-06T08:04:51.494Z,77.98
2023-05-06T08:07:18.650Z,75.61
2023-05-06T08:09:48.060Z,75.48
2023-05-06T08:12:16.003Z,74.67
2023-05-06T08:14:46.917Z,73.71
2023-05-06T08:17:14.077Z,73.18
2023-05-06T08:19:40.779Z,72.36
2023-05-06T08:22:09.408Z,71.16
2023-05-06T08:24:36.151Z,69.30
2023-05-06T08:27:04.526Z,70.51
2023-05-06T08:29:31.281Z,71.11
2023-05-06T08:31:57.956Z,70.79
2023-05-06T08:34:24.968Z,71.08
2023-05-06T08:36:52.355Z,70.54
2023-05-06T08:39:19.251Z,69.35
2023-05-06T08:41:52.580Z,67.84
2023-05-06T08:44:21.831Z,68.50
2023-05-06T08:46:49.561Z,67.51
2023-05-06T08:49:16.670Z,65.74
2023-05-06T08:51:45.400Z,64.29
2023-05-06T08:54:14.068Z,67.54
2023-05-06T08:56:49.490Z,65.69
2023-05-06T08:59:16.973Z,64.79
2023-05-06T09:01:44.499Z,64.46
2023-05-06T09:04:11.404Z,65.20
2023-05-06T09:06:38.051Z,64.10
2023-05-06T09:09:06.310Z,64.60
2023-05-06T09:11:36.550Z,63.49
2023-05-06T09:14:16.376Z,64.72
2023-05-06T09:16:49.882Z,63.02
2023-05-06T09:19:20.141Z,65.43
2023-05-06T09:21:49.739Z,63.15
2023-05-06T09:24:16.969Z,62.52
2023-05-06T09:26:47.049Z,61.21
2023-05-06T09:29:14.398Z,61.63
2023-05-06T09:31:45.516Z,61.52
2023-05-06T09:34:13.148Z,62.50
2023-05-06T09:36:39.932Z,61.71
2023-05-06T09:39:07.374Z,62.73
2023-05-06T09:41:34.030Z,63.58
2023-05-06T09:44:01.217Z,61.01
2023-05-06T09:46:29.232Z,61.10
2023-05-06T09:48:57.396Z,61.51
2023-05-06T09:51:24.546Z,59.56
2023-05-06T09:53:51.900Z,58.39
2023-05-06T09:56:24.713Z,59.50
2023-05-06T09:58:52.761Z,59.15
2023-05-06T10:01:32.736Z,58.53
2023-05-06T10:04:08.522Z,57.07
2023-05-06T10:06:39.545Z,57.66
2023-05-06T10:09:08.587Z,55.94
2023-05-06T10:11:36.040Z,56.38
2023-05-06T10:14:02.896Z,56.87
2023-05-06T10:16:30.085Z,56.11
2023-05-06T10:18:58.385Z,56.07
2023-05-06T10:21:28.362Z,56.45
2023-05-06T10:24:11.826Z,56.36
2023-05-06T10:26:39.682Z,56.39
2023-05-06T10:29:10.784Z,56.09
2023-05-06T10:31:57.449Z,58.43
2023-05-06T10:34:28.099Z,58.01
2023-05-06T10:36:57.935Z,57.45
2023-05-06T10:39:26.098Z,58.67
2023-05-06T10:41:52.971Z,56.96
2023-05-06T10:44:58.998Z,56.35
2023-05-06T10:47:28.840Z,56.39
2023-05-06T10:50:29.779Z,54.94
2023-05-06T10:52:59.355Z,53.68
2023-05-06T10:55:30.724Z,52.33
2023-05-06T10:58:02.121Z,52.15
2023-05-06T11:00:33.077Z,52.51
2023-05-06T11:03:06.861Z,50.66
2023-05-06T11:05:48.320Z,51.31
2023-05-06T11:08:16.629Z,49.46
2023-05-06T11:10:43.323Z,49.70
2023-05-06T11:13:30.471Z,49.70
2023-05-06T11:15:58.265Z,51.09
2023-05-06T11:18:24.970Z,50.76
2023-05-06T11:21:12.855Z,50.00
2023-05-06T11:23:55.251Z,50.37
2023-05-06T11:26:21.916Z,50.65
2023-05-06T11:28:50.609Z,51.81
2023-05-06T11:31:19.228Z,50.24
2023-05-06T11:33:48.082Z,51.34
2023-05-06T11:36:15.969Z,52.23
2023-05-06T11:38:47.436Z,54.77
2023-05-06T11:41:16.669Z,56.07
2023-05-06T11:43:51.029Z,52.87
2023-05-06T11:46:19.749Z,53.66
2023-05-06T11:48:46.967Z,53.44
2023-05-06T11:51:13.622Z,51.58
2023-05-06T11:53:40.724Z,50.79
2023-05-06T11:56:07.908Z,50.55
2023-05-06T11:58:35.897Z,50.24
2023-05-06T12:01:04.233Z,51.36
2023-05-06T12:03:32.024Z,53.55
2023-05-06T12:05:59.452Z,53.21
2023-05-06T12:08:30.464Z,51.43
2023-05-06T12:11:01.908Z,48.16
2023-05-06T12:13:31.041Z,46.30
2023-05-06T12:15:59.767Z,46.56
2023-05-06T12:18:26.930Z,46.20
2023-05-06T12:20:56.128Z,46.95
2023-05-06T12:23:22.966Z,46.27
2023-05-06T12:26:04.306Z,44.76
2023-05-06T12:28:32.729Z,44.81
2023-05-06T12:30:59.919Z,44.66
2023-05-06T12:33:26.702Z,44.57
2023-05-06T12:35:57.213Z,45.80
2023-05-06T12:38:25.396Z,48.63
2023-05-06T12:40:55.641Z,46.45
2023-05-06T12:43:33.134Z,45.66
2023-05-06T12:46:05.097Z,45.72
2023-05-06T12:48:33.373Z,46.11
2023-05-06T12:51:02.521Z,48.09
2023-05-06T12:53:33.919Z,46.72
2023-05-06T12:56:00.927Z,47.06
2023-05-06T12:58:27.696Z,47.08
2023-05-06T13:00:54.374Z,47.97
2023-05-06T13:03:21.362Z,48.06
2023-05-06T13:05:50.431Z,48.31
2023-05-06T13:08:18.591Z,48.74
2023-05-06T13:10:45.299Z,48.04
2023-05-06T13:13:11.963Z,48.95
2023-05-06T13:15:39.322Z,48.99
2023-05-06T13:18:05.987Z,50.71
2023-05-06T13:20:32.992Z,50.15
2023-05-06T13:22:59.757Z,50.17
2023-05-06T13:25:29.230Z,51.59
2023-05-06T13:27:56.744Z,51.35
2023-05-06T13:30:23.583Z,51.12
2023-05-06T13:32:51.417Z,52.86
2023-05-06T13:35:18.529Z,52.13
2023-05-06T13:37:48.501Z,51.60
2023-05-06T13:40:18.676Z,52.47
2023-05-06T13:42:45.567Z,52.81
2023-05-06T13:45:12.758Z,52.63
2023-05-06T13:47:39.584Z,53.38
2023-05-06T13:50:11.450Z,53.16
2023-05-06T13:52:38.424Z,53.35
2023-05-06T13:55:05.940Z,53.35
2023-05-06T13:57:32.745Z,53.35
2023-05-06T13:59:59.549Z,53.63
2023-05-06T14:02:27.048Z,54.31
2023-05-06T14:04:54.006Z,53.97
2023-05-06T14:07:20.894Z,54.10
2023-05-06T14:09:49.040Z,54.98
2023-05-06T14:12:16.384Z,55.95
2023-05-06T14:14:43.348Z,57.14
2023-05-06T14:17:12.573Z,58.86
2023-05-06T14:19:39.189Z,58.39
2023-05-06T14:22:08.727Z,67.12
2023-05-06T14:27:29.322Z,78.84
2023-05-06T14:29:59.407Z,80.67
2023-05-06T14:32:33.841Z,82.15
2023-05-06T14:35:11.954Z,83.21
2023-05-06T14:37:39.228Z,83.58
2023-05-06T14:40:08.307Z,83.86
2023-05-06T14:42:55.746Z,84.50
2023-05-06T14:45:31.423Z,84.12
2023-05-06T14:56:39.546Z,85.78
2023-05-06T18:09:27.478Z,87.58
2023-05-06T18:12:00.037Z,87.59
2023-05-06T18:14:33.606Z,88.02
2023-05-06T18:17:00.496Z,87.58
2023-05-06T18:19:27.860Z,87.86
2023-05-06T18:22:31.709Z,87.67
2023-05-06T18:25:28.635Z,87.90
2023-05-06T18:27:54.769Z,87.00
2023-05-06T18:30:28.034Z,87.05
2023-05-06T18:32:56.665Z,87.13
2023-05-06T18:35:24.021Z,87.06
2023-05-06T18:37:51.125Z,87.66
2023-05-06T18:40:21.657Z,87.95
2023-05-06T18:42:52.913Z,88.22
2023-05-06T18:45:19.678Z,88.71
2023-05-06T18:47:46.545Z,88.69
2023-05-06T18:50:13.442Z,89.28
2023-05-06T18:52:41.259Z,88.66
2023-05-06T18:55:08.262Z,89.07
2023-05-06T18:57:36.065Z,89.16
2023-05-06T19:00:02.689Z,89.46
2023-05-06T19:10:34.292Z,88.75
2023-05-06T19:13:02.990Z,89.03
2023-05-06T19:15:33.117Z,89.26
2023-05-06T19:18:00.157Z,89.39
2023-05-06T19:20:27.003Z,89.52
2023-05-06T19:22:53.704Z,89.83
2023-05-06T19:25:20.953Z,89.60
2023-05-06T19:27:47.627Z,89.43
2023-05-06T19:30:14.490Z,89.37
2023-05-06T19:32:44.574Z,89.07
2023-05-06T19:35:11.806Z,88.99
2023-05-06T19:37:38.728Z,88.83
2023-05-06T19:40:06.610Z,88.84
2023-05-06T19:42:34.728Z,88.92
2023-05-06T19:45:07.577Z,88.92
2023-05-06T19:47:34.472Z,89.56
2023-05-06T19:50:02.512Z,89.66
2023-05-06T19:52:31.464Z,89.82
2023-05-06T19:54:59.489Z,89.97
2023-05-06T19:57:31.017Z,90.11
2023-05-06T19:59:57.895Z,90.37
2023-05-06T20:02:31.888Z,90.42
2023-05-06T20:05:00.687Z,90.38
2023-05-06T20:07:27.805Z,89.69
2023-05-06T20:09:56.221Z,90.25
2023-05-06T20:12:23.874Z,90.35
2023-05-06T20:14:50.821Z,90.11
2023-05-06T20:17:17.588Z,90.34
2023-05-06T20:19:45.582Z,90.28
2023-05-06T20:22:12.821Z,90.24
2023-05-06T20:24:42.050Z,90.37
2023-05-06T20:27:09.101Z,90.23
2023-05-06T20:29:36.108Z,90.87
2023-05-06T20:32:03.154Z,90.95
2023-05-06T20:34:31.752Z,91.50
2023-05-06T20:36:58.538Z,91.66
2023-05-06T20:39:26.317Z,91.24
2023-05-06T20:41:57.388Z,91.26
2023-05-06T20:44:25.734Z,91.17
2023-05-06T20:46:52.867Z,91.51
2023-05-06T20:49:21.635Z,91.53
2023-05-06T20:51:49.569Z,91.56
2023-05-06T20:54:18.448Z,91.42
2023-05-06T20:56:45.687Z,90.99
2023-05-06T20:59:12.412Z,90.77
2023-05-06T21:01:44.681Z,90.51
2023-05-06T21:04:11.875Z,90.49
2023-05-06T21:06:41.318Z,90.77
2023-05-06T21:09:08.029Z,90.79
2023-05-06T21:11:34.729Z,90.51
2023-05-06T21:14:02.430Z,91.18
2023-05-06T21:16:30.093Z,91.02
2023-05-06T21:18:57.324Z,91.13
2023-05-06T21:21:25.979Z,90.84
2023-05-06T21:23:52.785Z,90.75
2023-05-06T21:26:21.670Z,91.31
2023-05-06T21:28:52.091Z,92.04
2023-05-06T21:31:23.413Z,91.76
2023-05-06T21:33:58.197Z,92.18
2023-05-06T21:36:25.520Z,92.43
2023-05-06T21:39:03.827Z,92.56
2023-05-06T21:41:31.232Z,92.40
2023-05-06T21:43:59.314Z,92.10
2023-05-06T21:46:25.953Z,92.10
2023-05-06T21:48:52.662Z,91.95
2023-05-06T21:51:19.330Z,91.91
2023-05-06T21:53:50.297Z,91.87
2023-05-06T21:56:19.408Z,91.94
2023-05-06T21:58:46.106Z,91.85
2023-05-06T22:01:13.794Z,91.71
2023-05-06T22:03:41.790Z,91.43
2023-05-06T22:06:10.526Z,91.33
2023-05-06T22:08:37.740Z,91.47
2023-05-06T22:11:04.765Z,91.95
2023-05-06T22:13:34.305Z,92.19
2023-05-06T22:16:01.653Z,92.22
2023-05-06T22:18:30.435Z,91.92
2023-05-06T22:20:58.032Z,91.78
2023-05-06T22:23:25.931Z,91.89
2023-05-06T22:25:52.840Z,92.07
2023-05-06T22:28:20.280Z,91.63
2023-05-06T22:30:46.935Z,91.33
2023-05-06T22:33:17.907Z,91.81
2023-05-06T22:35:46.457Z,91.63
2023-05-06T22:38:14.546Z,92.12
2023-05-06T22:40:42.701Z,91.62
2023-05-06T22:43:09.589Z,91.76
2023-05-06T22:45:38.112Z,91.80
2023-05-06T22:48:08.084Z,91.76
2023-05-06T22:50:41.308Z,91.83
2023-05-06T22:53:15.357Z,92.09
2023-05-06T22:55:42.694Z,92.04
2023-05-06T22:58:09.802Z,92.01
2023-05-06T23:00:37.721Z,91.69
2023-05-06T23:03:05.375Z,91.71
2023-05-06T23:05:34.929Z,91.37
2023-05-06T23:08:01.828Z,91.09
2023-05-06T23:10:29.704Z,90.91
2023-05-06T23:12:59.738Z,91.54
2023-05-06T23:15:27.040Z,91.09
2023-05-06T23:17:53.745Z,91.03
2023-05-06T23:20:20.473Z,91.52
2023-05-06T23:22:51.171Z,91.29
2023-05-06T23:25:18.227Z,91.95
2023-05-06T23:27:45.522Z,91.76
2023-05-06T23:30:12.728Z,91.93
2023-05-06T23:32:40.314Z,91.66
2023-05-06T23:35:07.958Z,91.72
2023-05-06T23:37:34.957Z,91.92
2023-05-06T23:40:01.651Z,91.61
2023-05-06T23:42:28.380Z,91.82
2023-05-06T23:44:55.386Z,91.70
2023-05-06T23:47:22.075Z,91.44
2023-05-06T23:49:48.744Z,91.54
2023-05-06T23:52:15.419Z,91.47
2023-05-06T23:54:42.427Z,92.48
